Time;durP1;ratioP1;P1;durP2;ratioP2;P2;SDS_P1;SDS_P2;PMS_P1;PMS_P2;Temp;Humidity;BMP_temperature;BMP_pressure;BME280_temperature;BME280_humidity;BME280_pressure;Samples;Min_cycle;Max_cycle;Signal;HPM_P1;HPM_P2
2022/01/22 00:01:15;;;;;;;5.87;4.37;;;1.10;99.90;;;;;;5108572;28;20298;-85
2022/01/22 00:03:44;;;;;;;3.33;3.10;;;1.10;99.90;;;;;;5095512;28;20291;-85
2022/01/22 00:06:13;;;;;;;3.53;3.23;;;1.10;99.90;;;;;;5095556;28;20221;-85
2022/01/22 00:08:42;;;;;;;3.10;2.87;;;1.20;99.90;;;;;;5095212;28;20267;-85
2022/01/22 00:11:12;;;;;;;3.77;3.00;;;1.20;99.90;;;;;;5095272;28;20244;-85
2022/01/22 00:16:25;;;;;;;4.60;3.10;;;1.20;99.90;;;;;;5095374;28;20308;-84
2022/01/22 00:18:54;;;;;;;3.20;2.97;;;1.20;99.90;;;;;;5094510;28;20221;-85
2022/01/22 00:21:22;;;;;;;3.33;2.57;;;1.20;99.90;;;;;;5095271;28;20281;-85
2022/01/22 00:23:56;;;;;;;3.70;3.27;;;1.30;99.90;;;;;;5095270;28;20211;-85
2022/01/22 00:26:26;;;;;;;12.40;3.23;;;1.30;99.90;;;;;;5095373;28;20256;-85
2022/01/22 00:28:54;;;;;;;4.43;3.83;;;1.30;99.90;;;;;;5094760;28;20215;-85
2022/01/22 00:31:22;;;;;;;3.17;2.83;;;1.30;99.90;;;;;;5094658;28;20216;-85
2022/01/22 00:33:50;;;;;;;5.70;4.30;;;1.30;99.90;;;;;;5094828;28;20209;-85
2022/01/22 00:36:19;;;;;;;5.17;3.40;;;1.30;99.90;;;;;;5094898;28;20307;-85
2022/01/22 00:38:47;;;;;;;5.23;3.70;;;1.30;99.90;;;;;;5094334;28;20223;-85
2022/01/22 00:41:15;;;;;;;3.33;3.03;;;1.20;99.90;;;;;;5094900;28;20203;-85
2022/01/22 00:43:45;;;;;;;4.63;3.43;;;1.30;99.90;;;;;;5094631;28;20292;-84
2022/01/22 00:46:13;;;;;;;3.17;2.87;;;1.30;99.90;;;;;;5094510;28;20238;-85
2022/01/22 00:48:42;;;;;;;4.00;3.53;;;1.30;99.90;;;;;;5094293;28;20206;-85
2022/01/22 00:51:10;;;;;;;4.30;3.60;;;1.30;99.90;;;;;;5094238;28;20307;-85
2022/01/22 00:53:38;;;;;;;3.90;3.30;;;1.30;99.90;;;;;;5094532;28;20239;-84
2022/01/22 00:56:07;;;;;;;3.37;3.07;;;1.30;99.90;;;;;;5094856;28;20288;-85
2022/01/22 00:58:35;;;;;;;2.40;2.20;;;1.30;99.90;;;;;;5094449;28;20211;-85
2022/01/22 01:01:06;;;;;;;2.50;2.30;;;1.30;99.90;;;;;;5094070;28;20209;-85
2022/01/22 01:03:35;;;;;;;3.17;2.90;;;1.30;99.90;;;;;;5094510;28;20196;-85
2022/01/22 01:06:04;;;;;;;2.73;2.53;;;1.30;99.90;;;;;;5094167;28;20303;-85
2022/01/22 01:08:34;;;;;;;2.70;2.50;;;1.30;99.90;;;;;;5094259;28;20223;-85
2022/01/22 01:11:05;;;;;;;2.83;2.20;;;1.30;99.90;;;;;;5094107;28;20208;-85
2022/01/22 01:13:40;;;;;;;3.63;2.83;;;1.20;99.90;;;;;;5093114;28;20276;-85
2022/01/22 01:16:20;;;;;;;3.00;2.57;;;1.20;99.90;;;;;;5094078;28;20228;-85
2022/01/22 01:32:48;;;;;;;1.30;1.30;;;1.30;99.90;;;;;;5093708;28;20230;-85
2022/01/22 01:35:17;;;;;;;2.13;1.93;;;1.30;99.90;;;;;;5093727;28;20267;-85
2022/01/22 01:37:45;;;;;;;2.53;2.33;;;1.30;99.90;;;;;;5093700;28;20215;-85
2022/01/22 01:40:17;;;;;;;2.37;2.13;;;1.30;99.90;;;;;;5093028;28;20276;-85
2022/01/22 01:42:50;;;;;;;4.53;2.30;;;1.30;99.90;;;;;;5093748;28;20235;-85
2022/01/22 01:45:18;;;;;;;1.50;1.40;;;1.20;99.90;;;;;;5093533;28;20303;-85
2022/01/22 01:47:55;;;;;;;2.30;2.10;;;1.20;99.90;;;;;;5093457;28;20205;-84
2022/01/22 01:50:24;;;;;;;2.37;1.73;;;1.20;99.90;;;;;;5092959;28;20298;-85
2022/01/22 01:53:06;;;;;;;6.70;2.80;;;1.20;99.90;;;;;;5093531;28;20312;-85
2022/01/22 01:55:47;;;;;;;5.43;2.30;;;1.10;99.90;;;;;;5093540;28;20251;-84
2022/01/22 01:58:15;;;;;;;2.20;2.00;;;1.20;99.90;;;;;;5093506;28;20204;-84
2022/01/22 02:00:43;;;;;;;17.40;2.63;;;1.20;99.90;;;;;;5092477;28;20243;-84
2022/01/22 02:03:14;;;;;;;1.97;1.87;;;1.20;99.90;;;;;;5093141;28;20253;-83
2022/01/22 02:05:42;;;;;;;1.87;1.77;;;1.20;99.90;;;;;;5093300;28;20285;-84
2022/01/22 02:08:12;;;;;;;1.57;1.47;;;1.30;99.90;;;;;;5093061;28;20211;-85
2022/01/22 02:10:45;;;;;;;2.50;2.20;;;1.30;99.90;;;;;;5092764;28;20264;-84
2022/01/22 02:24:18;;;;;;;1.67;1.57;;;1.30;99.90;;;;;;5092763;28;20291;-84
2022/01/22 02:26:48;;;;;;;2.23;2.03;;;1.20;99.90;;;;;;5093032;28;20189;-85
2022/01/22 02:29:16;;;;;;;1.70;1.60;;;1.20;99.90;;;;;;5092473;28;20287;-84
2022/01/22 02:31:57;;;;;;;2.10;1.97;;;1.20;99.90;;;;;;5093436;28;20208;-84
2022/01/22 02:34:36;;;;;;;2.23;1.73;;;1.20;99.90;;;;;;5092670;28;20315;-85
2022/01/22 02:37:12;;;;;;;1.63;1.53;;;1.20;99.90;;;;;;5092726;28;20228;-85
2022/01/22 02:39:44;;;;;;;1.63;1.53;;;1.10;99.90;;;;;;5092226;28;20204;-84
2022/01/22 02:42:14;;;;;;;1.30;1.20;;;1.10;99.90;;;;;;5092539;28;20201;-85
2022/01/22 02:44:46;;;;;;;2.30;1.80;;;1.00;99.90;;;;;;5092809;28;20224;-84
2022/01/22 02:47:16;;;;;;;1.60;1.50;;;1.00;99.90;;;;;;5092790;28;20287;-84
2022/01/22 02:49:44;;;;;;;1.80;1.70;;;1.00;99.90;;;;;;5091612;28;20236;-85
2022/01/22 02:52:17;;;;;;;1.73;1.63;;;0.90;99.90;;;;;;5092870;28;20216;-85
2022/01/22 02:54:47;;;;;;;1.40;1.30;;;0.90;99.90;;;;;;5092569;28;20280;-84
2022/01/22 02:57:15;;;;;;;1.90;1.70;;;0.90;99.90;;;;;;5092648;28;20291;-84
2022/01/22 02:59:44;;;;;;;1.70;1.60;;;0.80;99.90;;;;;;5092071;28;20204;-84
2022/01/22 03:02:13;;;;;;;1.70;1.60;;;0.80;99.90;;;;;;5092702;28;20205;-84
2022/01/22 03:04:42;;;;;;;1.57;1.47;;;0.90;99.90;;;;;;5092511;28;20243;-84
2022/01/22 03:07:11;;;;;;;1.53;1.43;;;0.80;99.90;;;;;;5092440;28;20331;-84
2022/01/22 03:09:43;;;;;;;1.93;1.83;;;0.80;99.90;;;;;;5092318;28;20272;-84
2022/01/22 03:12:34;;;;;;;1.40;1.33;;;0.80;99.90;;;;;;5092354;28;20231;-84
2022/01/22 03:15:35;;;;;;;1.37;1.27;;;0.90;99.90;;;;;;5092712;28;20224;-84
2022/01/22 03:18:08;;;;;;;1.40;1.30;;;0.90;99.90;;;;;;5092428;28;20283;-83
2022/01/22 03:21:00;;;;;;;1.50;1.40;;;0.90;99.90;;;;;;5090878;28;20208;-84
2022/01/22 03:29:05;;;;;;;1.17;1.10;;;1.00;99.90;;;;;;5091736;28;20224;-84
2022/01/22 03:31:33;;;;;;;1.63;1.53;;;1.10;99.90;;;;;;5092054;28;20226;-84
2022/01/22 03:34:02;;;;;;;1.47;1.37;;;1.10;99.90;;;;;;5092029;28;20224;-85
2022/01/22 03:36:33;;;;;;;1.47;1.37;;;1.10;99.90;;;;;;5092127;28;20239;-84
2022/01/22 03:39:02;;;;;;;1.17;0.93;;;1.10;99.90;;;;;;5095383;28;20209;-85
2022/01/22 03:41:32;;;;;;;1.13;1.13;;;1.10;99.90;;;;;;5095594;28;20208;-85
2022/01/22 03:44:02;;;;;;;1.20;1.10;;;1.20;99.90;;;;;;5095806;28;20204;-86
2022/01/22 03:46:31;;;;;;;0.80;0.80;;;1.20;99.90;;;;;;5095852;28;20520;-85
2022/01/22 03:48:59;;;;;;;1.17;1.17;;;1.20;99.90;;;;;;5094861;28;20299;-86
2022/01/22 03:51:28;;;;;;;1.43;1.33;;;1.20;99.90;;;;;;5095442;28;20251;-85
2022/01/22 03:53:56;;;;;;;2.63;1.10;;;1.10;99.90;;;;;;5095485;28;20234;-85
2022/01/22 03:56:26;;;;;;;1.50;1.30;;;1.10;99.90;;;;;;5095564;28;20258;-86
2022/01/22 03:58:56;;;;;;;1.90;0.93;;;1.10;99.90;;;;;;5094971;28;20272;-86
2022/01/22 04:04:16;;;;;;;1.27;1.10;;;1.00;99.90;;;;;;5061077;28;20205;-86
2022/01/22 04:09:43;;;;;;;1.07;0.90;;;1.00;99.90;;;;;;5095050;28;20204;-85
2022/01/22 04:12:13;;;;;;;1.00;1.00;;;1.00;99.90;;;;;;5095055;28;20211;-85
2022/01/22 04:14:49;;;;;;;1.23;1.13;;;1.00;99.90;;;;;;5094646;28;20234;-85
2022/01/22 04:17:35;;;;;;;1.00;1.00;;;0.90;99.90;;;;;;5095099;28;20283;-86
2022/01/22 04:25:39;;;;;;;1.07;1.03;;;0.70;99.90;;;;;;5095610;28;20228;-86
2022/01/22 04:28:08;;;;;;;1.00;1.00;;;0.80;99.90;;;;;;5095268;28;20293;-86
2022/01/22 04:30:38;;;;;;;1.30;1.20;;;0.70;99.90;;;;;;5094296;28;20207;-86
2022/01/22 04:33:06;;;;;;;1.37;1.27;;;0.80;99.90;;;;;;5094994;28;20255;-86
2022/01/22 04:35:35;;;;;;;0.90;0.90;;;0.80;99.90;;;;;;5095242;28;20288;-86
2022/01/22 04:38:03;;;;;;;2.87;0.83;;;0.80;99.90;;;;;;5094673;28;20283;-87
2022/01/22 04:40:32;;;;;;;2.70;1.37;;;0.80;99.90;;;;;;5094266;28;20208;-87
2022/01/22 04:43:03;;;;;;;0.80;0.80;;;0.70;99.90;;;;;;5094960;28;20279;-87
2022/01/22 04:45:45;;;;;;;1.23;1.10;;;0.80;99.90;;;;;;5094909;28;20483;-87
2022/01/22 04:48:27;;;;;;;1.10;1.10;;;0.80;99.90;;;;;;5094840;28;20295;-87
2022/01/22 04:56:27;;;;;;;1.70;1.60;;;1.00;99.90;;;;;;5094399;28;20234;-87
2022/01/22 04:58:55;;;;;;;1.00;1.00;;;1.00;99.90;;;;;;5093824;28;20295;-87
2022/01/22 05:01:24;;;;;;;1.10;1.10;;;1.00;99.90;;;;;;5094904;28;20283;-87
2022/01/22 05:03:54;;;;;;;0.90;0.90;;;1.00;99.90;;;;;;5094430;28;20208;-87
2022/01/22 05:06:22;;;;;;;1.00;1.00;;;1.00;99.90;;;;;;5094353;28;20243;-87
2022/01/22 05:08:50;;;;;;;1.80;0.90;;;1.00;99.90;;;;;;5093842;28;20212;-87
2022/01/22 05:11:18;;;;;;;1.90;1.67;;;1.00;99.90;;;;;;5094320;28;20212;-86
2022/01/22 05:13:47;;;;;;;1.07;0.97;;;1.10;99.90;;;;;;5094120;28;20271;-87
2022/01/22 05:16:16;;;;;;;1.73;0.97;;;1.10;99.90;;;;;;5094075;28;20244;-86
2022/01/22 05:18:51;;;;;;;1.33;1.20;;;1.00;99.90;;;;;;5093863;28;20204;-86
2022/01/22 05:21:22;;;;;;;1.17;1.10;;;1.00;99.90;;;;;;5094426;28;20281;-86
2022/01/22 05:23:52;;;;;;;5.63;1.03;;;0.90;99.90;;;;;;5094244;28;20271;-86
2022/01/22 05:26:44;;;;;;;2.33;1.53;;;0.90;99.90;;;;;;5094091;28;20284;-86
2022/01/22 05:29:23;;;;;;;1.70;1.00;;;0.90;99.90;;;;;;5093995;28;20208;-85
2022/01/22 05:37:21;;;;;;;1.20;1.10;;;1.00;99.90;;;;;;5094018;28;20295;-86
2022/01/22 05:39:50;;;;;;;1.00;1.00;;;1.00;99.90;;;;;;5093105;28;20204;-86
2022/01/22 05:42:18;;;;;;;1.60;1.30;;;1.00;99.90;;;;;;5093815;28;20283;-86
2022/01/22 05:44:46;;;;;;;0.90;0.57;;;1.00;99.90;;;;;;5093374;28;20303;-87
2022/01/22 05:47:20;;;;;;;0.67;0.67;;;1.00;99.90;;;;;;5093727;28;20201;-86
2022/01/22 05:49:49;;;;;;;0.67;0.67;;;1.10;99.90;;;;;;5093136;28;20205;-86
2022/01/22 05:52:25;;;;;;;1.03;1.03;;;1.00;99.90;;;;;;5093320;28;20283;-86
2022/01/22 05:55:13;;;;;;;1.03;1.03;;;1.00;99.90;;;;;;5093328;28;20259;-85
2022/01/22 06:00:27;;;;;;;1.17;1.17;;;0.90;99.90;;;;;;5092143;28;20291;-85
2022/01/22 06:02:55;;;;;;;1.10;1.10;;;0.90;99.90;;;;;;5093388;28;20208;-85
2022/01/22 06:05:23;;;;;;;2.50;1.33;;;0.90;99.90;;;;;;5092974;28;20240;-84
2022/01/22 06:07:52;;;;;;;1.57;1.47;;;0.90;99.90;;;;;;5093189;28;20204;-85
2022/01/22 06:10:27;;;;;;;1.63;1.53;;;0.90;99.90;;;;;;5092721;28;20272;-84
2022/01/22 06:13:11;;;;;;;1.37;1.23;;;1.00;99.90;;;;;;5093024;28;20204;-85
2022/01/22 06:15:39;;;;;;;1.00;0.93;;;0.90;99.90;;;;;;5092690;28;20228;-85
2022/01/22 06:18:07;;;;;;;1.20;1.20;;;1.00;99.90;;;;;;5092932;28;20291;-85
2022/01/22 06:20:36;;;;;;;1.57;1.47;;;1.00;99.90;;;;;;5092367;28;20226;-85
2022/01/22 06:23:05;;;;;;;1.20;1.20;;;0.90;99.90;;;;;;5092984;28;20208;-84
2022/01/22 06:25:34;;;;;;;1.43;1.33;;;0.90;99.90;;;;;;5092752;28;20220;-84
2022/01/22 06:28:03;;;;;;;1.73;1.63;;;1.00;99.90;;;;;;5092551;28;20276;-84
2022/01/22 06:30:32;;;;;;;1.23;1.23;;;1.00;99.90;;;;;;5092738;28;20287;-84
2022/01/22 06:33:00;;;;;;;6.93;2.27;;;1.00;99.90;;;;;;5092634;28;20240;-84
2022/01/22 06:35:28;;;;;;;1.70;1.60;;;1.00;99.90;;;;;;5092698;28;20270;-84
2022/01/22 06:38:00;;;;;;;2.37;1.60;;;1.00;99.90;;;;;;5092858;28;20224;-83
2022/01/22 06:43:30;;;;;;;2.27;2.10;;;1.00;99.90;;;;;;5010929;28;20214;-83
2022/01/22 06:45:58;;;;;;;1.97;1.70;;;1.00;99.90;;;;;;5010598;28;20219;-83
2022/01/22 06:48:27;;;;;;;2.00;1.67;;;1.00;99.90;;;;;;5048067;28;20211;-83
2022/01/22 06:50:55;;;;;;;1.50;1.40;;;1.10;99.90;;;;;;5092111;28;20224;-84
2022/01/22 06:53:24;;;;;;;1.50;1.40;;;1.10;99.90;;;;;;5093192;28;20212;-84
2022/01/22 06:55:56;;;;;;;1.60;1.50;;;1.10;99.90;;;;;;5092124;28;20304;-84
2022/01/22 06:58:25;;;;;;;1.87;1.67;;;1.10;99.90;;;;;;5092477;28;20287;-84
2022/01/22 07:00:54;;;;;;;4.00;1.77;;;1.10;99.90;;;;;;5092086;28;20238;-85
2022/01/22 07:03:23;;;;;;;1.97;1.87;;;1.10;99.90;;;;;;5092676;28;20208;-84
2022/01/22 07:05:51;;;;;;;2.10;2.00;;;1.10;99.90;;;;;;5092556;28;20300;-85
2022/01/22 07:08:20;;;;;;;2.10;2.00;;;1.10;99.90;;;;;;5092680;28;20204;-85
2022/01/22 07:10:49;;;;;;;2.77;2.53;;;1.10;99.90;;;;;;5092248;28;20271;-85
2022/01/22 07:13:17;;;;;;;1.97;1.87;;;1.10;99.90;;;;;;5095479;28;20291;-85
2022/01/22 07:15:45;;;;;;;2.20;2.10;;;1.20;99.90;;;;;;5096360;28;20231;-85
2022/01/22 07:18:15;;;;;;;2.00;1.90;;;1.20;99.90;;;;;;5096480;28;20225;-85
2022/01/22 07:20:45;;;;;;;2.57;2.37;;;1.20;99.90;;;;;;5096112;28;20277;-85
2022/01/22 07:23:17;;;;;;;3.60;1.90;;;1.20;99.90;;;;;;5096528;28;20203;-85
2022/01/22 07:25:46;;;;;;;1.20;1.20;;;1.30;99.90;;;;;;5096131;28;20220;-84
2022/01/22 07:28:16;;;;;;;2.03;1.93;;;1.40;99.90;;;;;;5096160;28;20291;-85
2022/01/22 07:30:46;;;;;;;1.87;1.77;;;1.40;99.90;;;;;;5095679;28;20231;-85
2022/01/22 07:33:17;;;;;;;1.87;1.77;;;1.40;99.90;;;;;;5095966;28;20227;-85
2022/01/22 07:35:46;;;;;;;1.57;1.47;;;1.40;99.90;;;;;;5095865;28;20254;-85
2022/01/22 07:38:14;;;;;;;1.63;1.53;;;1.40;99.90;;;;;;5095986;28;20235;-85
2022/01/22 07:40:43;;;;;;;1.83;1.73;;;1.40;99.90;;;;;;5095227;28;20204;-85
2022/01/22 07:43:12;;;;;;;1.37;1.27;;;1.50;99.90;;;;;;5096052;28;20227;-85
2022/01/22 07:45:40;;;;;;;1.60;1.50;;;1.50;99.90;;;;;;5095880;28;20216;-85
2022/01/22 07:48:08;;;;;;;1.40;1.30;;;1.50;99.90;;;;;;5095878;28;20204;-84
2022/01/22 07:50:38;;;;;;;1.93;1.83;;;1.70;99.90;;;;;;5095264;28;20247;-84
2022/01/22 07:53:06;;;;;;;1.50;1.40;;;1.80;99.90;;;;;;5095603;28;20300;-84
2022/01/22 07:55:35;;;;;;;1.43;1.33;;;1.90;99.90;;;;;;5095578;28;20251;-86
2022/01/22 07:58:04;;;;;;;1.60;1.50;;;1.90;99.90;;;;;;5095570;28;20292;-86
2022/01/22 08:00:32;;;;;;;3.10;2.20;;;2.00;99.90;;;;;;5095135;28;20236;-85
2022/01/22 08:03:00;;;;;;;1.83;1.70;;;2.00;99.90;;;;;;5095702;28;20210;-84
2022/01/22 08:05:29;;;;;;;1.43;1.33;;;2.10;99.90;;;;;;5095366;28;20226;-85
2022/01/22 08:07:59;;;;;;;1.30;1.23;;;2.20;99.90;;;;;;5095346;28;20292;-84
2022/01/22 08:10:27;;;;;;;1.33;1.23;;;2.10;99.90;;;;;;5094881;28;20235;-84
2022/01/22 08:12:55;;;;;;;1.67;1.57;;;2.10;99.90;;;;;;5095580;28;20304;-85
2022/01/22 08:15:24;;;;;;;2.03;1.73;;;2.20;99.90;;;;;;5095173;28;20252;-84
2022/01/22 08:17:52;;;;;;;1.40;1.30;;;2.10;99.90;;;;;;5094797;28;20227;-84
2022/01/22 08:20:21;;;;;;;1.93;1.80;;;2.10;99.90;;;;;;5094821;28;20235;-84
2022/01/22 08:22:49;;;;;;;5.57;1.70;;;2.10;99.90;;;;;;5094765;28;20291;-84
2022/01/22 08:25:19;;;;;;;2.93;1.60;;;2.10;99.90;;;;;;5094922;28;20303;-84
2022/01/22 08:30:30;;;;;;;1.10;1.10;;;2.10;99.90;;;;;;5094838;28;20299;-84
2022/01/22 08:33:20;;;;;;;4.10;1.40;;;2.10;99.90;;;;;;5094727;28;20201;-84
2022/01/22 08:35:53;;;;;;;1.17;1.17;;;2.10;99.90;;;;;;5095454;28;20418;-84
2022/01/22 08:38:22;;;;;;;1.30;1.30;;;2.10;99.90;;;;;;5094708;28;20218;-83
2022/01/22 08:40:53;;;;;;;1.03;1.03;;;2.20;99.90;;;;;;5093963;28;20295;-84
2022/01/22 08:43:22;;;;;;;3.53;1.47;;;2.20;99.90;;;;;;5094781;28;20292;-85
2022/01/22 08:45:52;;;;;;;1.87;1.40;;;2.20;99.90;;;;;;5094902;28;20221;-85
2022/01/22 08:48:22;;;;;;;0.90;0.90;;;2.30;99.90;;;;;;5094696;28;20216;-86
2022/01/22 08:50:51;;;;;;;0.98;0.88;;;2.40;99.90;;;;;;5094215;28;20297;-84
2022/01/22 08:53:39;;;;;;;1.38;1.27;;;2.40;99.90;;;;;;5094393;28;20232;-85
2022/01/22 08:56:09;;;;;;;1.20;1.13;;;2.50;99.90;;;;;;5094058;28;20231;-84
2022/01/22 08:58:38;;;;;;;1.10;1.10;;;2.50;99.90;;;;;;5094247;28;20283;-85
2022/01/22 09:01:07;;;;;;;1.20;1.15;;;2.60;99.90;;;;;;5094626;28;20291;-84
2022/01/22 09:03:36;;;;;;;0.90;0.90;;;2.60;99.90;;;;;;5094628;28;20200;-84
2022/01/22 09:06:06;;;;;;;1.60;1.50;;;2.70;99.90;;;;;;5094306;28;20300;-84
2022/01/22 09:08:34;;;;;;;1.40;1.30;;;2.80;99.90;;;;;;5094038;28;20226;-84
2022/01/22 09:11:03;;;;;;;1.45;1.35;;;2.80;99.90;;;;;;5093462;28;20235;-84
2022/01/22 09:13:33;;;;;;;1.10;1.10;;;2.80;99.90;;;;;;5094265;28;20204;-84
2022/01/22 09:16:02;;;;;;;1.17;1.10;;;2.90;99.90;;;;;;5094098;28;20224;-84
2022/01/22 09:18:31;;;;;;;1.87;1.07;;;2.90;99.90;;;;;;5094416;28;20207;-84
2022/01/22 09:21:04;;;;;;;1.20;1.20;;;2.90;99.90;;;;;;5093831;28;20205;-84
2022/01/22 09:23:34;;;;;;;1.98;1.70;;;2.90;99.90;;;;;;5093987;28;20215;-84
2022/01/22 09:26:02;;;;;;;0.95;0.95;;;2.90;99.90;;;;;;5093855;28;20251;-84
2022/01/22 09:28:35;;;;;;;1.48;1.38;;;2.90;99.90;;;;;;5094076;28;20208;-84
2022/01/22 09:31:04;;;;;;;3.90;1.85;;;2.90;99.90;;;;;;5093585;28;20205;-85
2022/01/22 09:33:32;;;;;;;1.30;1.20;;;3.00;99.90;;;;;;5093824;28;20237;-84
2022/01/22 09:36:01;;;;;;;1.00;1.00;;;3.00;99.90;;;;;;5092606;28;20220;-84
2022/01/22 09:38:29;;;;;;;1.42;1.23;;;3.00;99.90;;;;;;5093906;28;20314;-84
2022/01/22 09:40:57;;;;;;;0.90;0.90;;;3.00;99.90;;;;;;5093220;28;20287;-85
2022/01/22 09:43:26;;;;;;;1.30;1.20;;;3.00;99.90;;;;;;5093952;28;20224;-84
2022/01/22 09:45:57;;;;;;;1.00;1.00;;;3.10;99.90;;;;;;5093418;28;20234;-85
2022/01/22 09:48:26;;;;;;;1.17;1.08;;;3.10;99.90;;;;;;5093720;28;20212;-84
2022/01/22 09:50:54;;;;;;;1.13;1.13;;;3.10;99.90;;;;;;5092708;28;20303;-85
2022/01/22 09:53:22;;;;;;;1.13;1.00;;;3.10;99.90;;;;;;5093554;28;20228;-84
2022/01/22 09:55:51;;;;;;;0.90;0.90;;;3.20;99.90;;;;;;5093115;28;20220;-84
2022/01/22 09:58:19;;;;;;;0.90;0.90;;;3.20;99.90;;;;;;5093231;28;20284;-84
2022/01/22 10:00:48;;;;;;;1.10;1.00;;;3.30;99.90;;;;;;5093404;28;20299;-83
2022/01/22 10:03:21;;;;;;;1.58;1.25;;;3.30;99.90;;;;;;5093568;28;20204;-83
2022/01/22 10:05:49;;;;;;;0.77;0.77;;;3.30;99.90;;;;;;5093042;28;20248;-83
2022/01/22 10:08:27;;;;;;;0.90;0.90;;;3.40;99.90;;;;;;5093110;28;20235;-83
2022/01/22 10:10:58;;;;;;;1.27;1.20;;;3.40;99.90;;;;;;5092720;28;20211;-84
2022/01/22 10:13:43;;;;;;;0.95;0.95;;;3.40;99.90;;;;;;5093344;28;20296;-84
2022/01/22 10:16:14;;;;;;;1.38;1.27;;;3.40;99.90;;;;;;5092702;28;20220;-84
2022/01/22 10:18:44;;;;;;;0.90;0.90;;;3.50;99.90;;;;;;5092398;28;20207;-83
2022/01/22 10:21:16;;;;;;;1.30;1.20;;;3.50;99.90;;;;;;5093150;28;20311;-83
2022/01/22 10:23:47;;;;;;;1.10;1.10;;;3.50;99.90;;;;;;5093109;28;20217;-83
2022/01/22 10:26:15;;;;;;;3.70;1.90;;;3.50;99.90;;;;;;5092715;28;20220;-83
2022/01/22 10:28:49;;;;;;;1.05;1.02;;;3.60;99.90;;;;;;5092531;28;20204;-83
2022/01/22 10:31:22;;;;;;;1.33;1.23;;;3.60;99.90;;;;;;5092921;28;20204;-83
2022/01/22 10:34:09;;;;;;;1.73;1.63;;;3.80;99.90;;;;;;5092558;28;20201;-82
2022/01/22 10:36:39;;;;;;;1.55;1.45;;;3.90;99.90;;;;;;5093196;28;20212;-83
2022/01/22 10:39:09;;;;;;;1.88;1.77;;;4.10;99.90;;;;;;5092369;28;20196;-85
2022/01/22 10:41:40;;;;;;;4.38;1.65;;;4.20;99.90;;;;;;5092593;28;20287;-83
2022/01/22 10:44:10;;;;;;;1.60;1.50;;;4.40;99.90;;;;;;5092687;28;20264;-83
2022/01/22 10:46:50;;;;;;;1.55;1.45;;;4.50;99.90;;;;;;5092009;28;20231;-84
2022/01/22 10:49:24;;;;;;;1.02;1.02;;;4.30;99.90;;;;;;5092248;28;20208;-83
2022/01/22 10:51:57;;;;;;;1.55;1.45;;;4.30;99.90;;;;;;5092355;28;20211;-84
2022/01/22 10:54:27;;;;;;;1.20;1.13;;;4.40;99.90;;;;;;5092091;28;20290;-84
2022/01/22 10:57:09;;;;;;;1.48;1.35;;;4.50;99.90;;;;;;5092645;28;20292;-84
2022/01/22 10:59:37;;;;;;;1.35;1.25;;;4.60;99.90;;;;;;5091813;28;20208;-84
2022/01/22 11:02:07;;;;;;;1.00;1.00;;;4.70;99.90;;;;;;5092785;28;20287;-84
2022/01/22 11:04:43;;;;;;;1.23;1.23;;;4.80;99.90;;;;;;5092370;28;20220;-83
2022/01/22 11:07:17;;;;;;;1.73;1.33;;;5.00;99.90;;;;;;5092146;28;20303;-84
2022/01/22 11:10:00;;;;;;;1.30;1.20;;;5.20;99.90;;;;;;5091515;28;20201;-84
2022/01/22 11:12:29;;;;;;;0.88;0.88;;;5.30;99.90;;;;;;5092095;28;20292;-84
2022/01/22 11:14:57;;;;;;;0.90;0.90;;;5.20;99.90;;;;;;5092340;28;20274;-84
2022/01/22 11:17:31;;;;;;;1.00;1.00;;;5.50;99.90;;;;;;5092407;28;20200;-85
2022/01/22 11:20:02;;;;;;;1.45;1.35;;;6.10;99.90;;;;;;5091699;28;20290;-85
2022/01/22 11:22:32;;;;;;;1.13;1.10;;;6.60;99.90;;;;;;5092080;28;20284;-85
2022/01/22 11:25:01;;;;;;;1.23;1.13;;;6.80;99.90;;;;;;5091843;28;20225;-84
2022/01/22 11:27:33;;;;;;;1.00;1.00;;;6.30;99.90;;;;;;5092049;28;20303;-85
2022/01/22 11:30:07;;;;;;;1.02;1.02;;;5.80;99.90;;;;;;5091738;28;20287;-84
2022/01/22 11:32:40;;;;;;;3.92;1.45;;;5.30;99.90;;;;;;5092180;28;20299;-84
2022/01/22 11:35:12;;;;;;;0.82;0.82;;;4.90;99.90;;;;;;5092322;28;20225;-84
2022/01/22 11:37:46;;;;;;;1.35;1.25;;;4.60;99.90;;;;;;5091958;28;20216;-84
2022/01/22 11:40:17;;;;;;;1.23;0.98;;;4.30;99.90;;;;;;5091379;28;20208;-84
2022/01/22 11:42:59;;;;;;;1.02;1.02;;;4.10;99.90;;;;;;5092297;28;20208;-85
2022/01/22 11:45:31;;;;;;;0.95;0.95;;;3.90;99.90;;;;;;5092001;28;20248;-85
2022/01/22 11:48:14;;;;;;;1.17;1.08;;;3.80;99.90;;;;;;5091862;28;20251;-85
2022/01/22 11:50:46;;;;;;;1.52;1.42;;;3.80;99.90;;;;;;5091263;28;20220;-84
2022/01/22 11:53:29;;;;;;;1.27;1.17;;;3.80;99.90;;;;;;5091871;28;20288;-85
2022/01/22 11:56:27;;;;;;;1.40;1.10;;;3.70;99.90;;;;;;5092545;28;20224;-85
2022/01/22 11:59:25;;;;;;;1.85;1.67;;;3.50;99.90;;;;;;5093229;28;20204;-85
2022/01/22 12:02:04;;;;;;;1.42;1.33;;;3.40;99.90;;;;;;5095359;28;20215;-84
2022/01/22 12:05:01;;;;;;;1.50;1.40;;;3.20;99.90;;;;;;5095639;28;20223;-84
2022/01/22 12:07:35;;;;;;;1.27;1.00;;;3.20;99.90;;;;;;5095311;28;20263;-84
2022/01/22 12:16:10;;;;;;;1.00;0.93;;;2.80;99.90;;;;;;5095157;28;20228;-84
2022/01/22 12:18:45;;;;;;;1.50;1.40;;;2.70;99.90;;;;;;5094762;28;20214;-85
2022/01/22 12:21:34;;;;;;;1.73;1.63;;;2.70;99.90;;;;;;5095226;28;20259;-85
2022/01/22 12:24:07;;;;;;;1.65;1.23;;;2.70;99.90;;;;;;5095140;28;20288;-84
2022/01/22 12:26:53;;;;;;;1.50;1.40;;;2.70;99.90;;;;;;5095173;28;20205;-85
2022/01/22 12:29:36;;;;;;;2.23;1.07;;;2.70;99.90;;;;;;5094767;28;20299;-85
2022/01/22 12:32:33;;;;;;;1.43;1.33;;;2.60;99.90;;;;;;5094957;28;20231;-84
2022/01/22 12:35:11;;;;;;;1.00;1.00;;;2.50;99.90;;;;;;5095297;28;20232;-85
2022/01/22 12:37:48;;;;;;;1.30;1.20;;;2.60;99.90;;;;;;5094916;28;20235;-84
2022/01/22 12:40:36;;;;;;;1.20;1.10;;;2.50;99.90;;;;;;5094293;28;20239;-84
2022/01/22 12:43:15;;;;;;;0.90;0.90;;;2.50;99.90;;;;;;5094479;28;20224;-85
2022/01/22 12:45:45;;;;;;;1.00;1.00;;;2.50;99.90;;;;;;5094255;28;20251;-84
2022/01/22 12:48:15;;;;;;;0.90;0.90;;;2.50;99.90;;;;;;5094891;28;20227;-85
2022/01/22 12:50:44;;;;;;;1.83;1.35;;;2.60;99.90;;;;;;5093689;28;20255;-84
2022/01/22 12:53:15;;;;;;;1.88;1.70;;;2.60;99.90;;;;;;5094494;28;20291;-85
2022/01/22 12:58:41;;;;;;;0.80;0.80;;;2.60;99.90;;;;;;5094534;28;20204;-85
2022/01/22 13:01:16;;;;;;;2.35;1.33;;;2.40;99.90;;;;;;5094305;28;20212;-84
2022/01/22 13:03:46;;;;;;;1.60;1.50;;;2.40;99.90;;;;;;5094517;28;20258;-84
2022/01/22 13:06:15;;;;;;;2.22;2.03;;;2.40;99.90;;;;;;5094071;28;20220;-84
2022/01/22 13:08:44;;;;;;;1.73;1.42;;;2.50;99.90;;;;;;5093679;28;20320;-84
2022/01/22 13:11:18;;;;;;;1.80;1.70;;;2.50;99.90;;;;;;5094132;28;20196;-84
2022/01/22 13:13:50;;;;;;;1.10;1.10;;;2.50;99.90;;;;;;5094616;28;20291;-84
2022/01/22 13:16:18;;;;;;;3.88;1.70;;;2.70;99.90;;;;;;5094141;28;20270;-84
2022/01/22 13:18:56;;;;;;;1.75;1.65;;;2.90;99.90;;;;;;5093507;28;20213;-84
2022/01/22 13:21:26;;;;;;;1.40;1.30;;;2.80;99.90;;;;;;5093848;28;20224;-84
2022/01/22 13:24:04;;;;;;;1.58;1.23;;;2.60;99.90;;;;;;5094216;28;20212;-86
2022/01/22 13:26:54;;;;;;;2.33;1.85;;;2.50;99.90;;;;;;5094044;28;20216;-84
2022/01/22 13:29:25;;;;;;;1.03;1.03;;;2.40;99.90;;;;;;5093439;28;20311;-84
2022/01/22 13:32:08;;;;;;;1.60;1.50;;;2.60;99.90;;;;;;5093836;28;20383;-87
2022/01/22 13:35:04;;;;;;;1.60;1.50;;;3.00;99.90;;;;;;5093960;28;20221;-84
2022/01/22 13:41:05;;;;;;;1.10;1.10;;;4.60;99.90;;;;;;5092243;28;20218;-84
2022/01/22 13:49:15;;;;;;;1.85;1.70;;;5.30;99.90;;;;;;5092735;28;20262;-84
2022/01/22 13:51:45;;;;;;;1.75;1.65;;;5.20;99.90;;;;;;5093244;28;20272;-84
2022/01/22 13:54:14;;;;;;;1.40;1.30;;;5.00;99.90;;;;;;5093453;28;20506;-84
2022/01/22 13:56:47;;;;;;;1.67;1.50;;;4.90;99.90;;;;;;5093550;28;20224;-84
2022/01/22 13:59:19;;;;;;;1.77;1.67;;;4.90;99.90;;;;;;5092747;28;20200;-84
2022/01/22 14:02:04;;;;;;;2.40;1.80;;;4.80;99.90;;;;;;5093224;28;20231;-87
2022/01/22 14:04:46;;;;;;;1.73;1.63;;;4.50;99.90;;;;;;5093943;28;20228;-87
2022/01/22 14:07:25;;;;;;;1.90;1.73;;;4.10;99.90;;;;;;5093454;28;20268;-87
2022/01/22 14:09:59;;;;;;;1.88;1.52;;;3.90;99.90;;;;;;5092707;28;20204;-84
2022/01/22 14:12:33;;;;;;;1.73;1.63;;;3.80;99.90;;;;;;5092995;28;20294;-85
2022/01/22 14:15:07;;;;;;;1.98;1.83;;;3.70;99.90;;;;;;5092622;28;20220;-84
2022/01/22 14:17:39;;;;;;;3.67;2.53;;;3.80;99.90;;;;;;5093367;28;20212;-85
2022/01/22 14:20:10;;;;;;;1.50;1.40;;;3.90;99.90;;;;;;5092543;28;20212;-85
2022/01/22 14:22:57;;;;;;;1.60;1.50;;;3.90;99.90;;;;;;5093104;28;20207;-84
2022/01/22 14:25:26;;;;;;;1.48;1.38;;;3.90;99.90;;;;;;5092685;28;20228;-85
2022/01/22 14:28:06;;;;;;;1.83;1.73;;;3.80;99.90;;;;;;5092630;28;20208;-84
2022/01/22 14:30:54;;;;;;;1.58;1.45;;;3.80;99.90;;;;;;5092599;28;20295;-84
2022/01/22 14:33:23;;;;;;;1.15;1.15;;;3.70;99.90;;;;;;5093055;28;20212;-84
2022/01/22 14:36:01;;;;;;;1.80;1.50;;;3.60;99.90;;;;;;5092907;28;20228;-85
2022/01/22 14:38:41;;;;;;;2.53;1.90;;;3.60;99.90;;;;;;5092766;28;20230;-84
2022/01/22 14:44:24;;;;;;;1.05;1.05;;;3.40;99.90;;;;;;5092527;28;20267;-84
2022/01/22 14:47:01;;;;;;;1.30;1.30;;;3.40;99.90;;;;;;5092822;28;20208;-85
2022/01/22 14:49:35;;;;;;;4.93;2.00;;;3.30;99.90;;;;;;5092102;28;20232;-85